Baildon, United Kingdom
Current Conditions -  °F | °C
As of 8:20 AM on Monday 26 Jan 2015 (Local Time) from EGNM Reporting Station
Scattered Clouds Scattered Clouds  
Wind Chill: 32°   Ceiling: Unl
Heat Index: 41°   Visibility: 6mi
Dew Point: 36°   Wind: 18mph
Humidity: 81%   Direction: 300°WNW
Pressure: 30.12"   Gusts: NA
Location:  53.85°N, 1.79°W
Report Text: EGNM 260820Z 30016KT 9999 FEW015 SCT045 05/02 Q1020
Loading
Personal Weather Stations






























Interactive Weather Map New forecast layout! Learn more

10-Day Weather Forecast

Advertisements
Track Severe Weather on mobile